Time;durP1;ratioP1;P1;durP2;ratioP2;P2;SDS_P1;SDS_P2;PMS_P1;PMS_P2;Temp;Humidity;BMP_temperature;BMP_pressure;BME280_temperature;BME280_humidity;BME280_pressure;Samples;Min_cycle;Max_cycle;Signal;HPM_P1;HPM_P2
2022/04/15 00:02:27;;;;;;;16.73;11.88;;;;;;;9.36;nan;101252.66;5017528;28;21517;-80
2022/04/15 00:04:56;;;;;;;15.27;11.25;;;;;;;9.26;nan;101254.50;5016811;28;20630;-79
2022/04/15 00:07:24;;;;;;;16.23;12.02;;;;;;;9.19;nan;101256.28;4998098;28;20392;-80
2022/04/15 00:09:51;;;;;;;13.98;10.93;;;;;;;9.08;nan;101247.56;5011059;28;20047;-80
2022/04/15 00:12:27;;;;;;;15.30;11.82;;;;;;;9.07;nan;101258.09;5001547;28;20045;-80
2022/04/15 00:14:57;;;;;;;12.88;9.38;;;;;;;8.94;nan;101260.78;5016891;28;20049;-80
2022/04/15 00:17:24;;;;;;;15.98;10.55;;;;;;;8.82;nan;101266.09;5027680;28;20041;-80
2022/04/15 00:19:51;;;;;;;14.65;11.13;;;;;;;8.79;nan;101258.19;5016906;28;20701;-80
2022/04/15 00:22:20;;;;;;;14.15;10.77;;;;;;;8.75;nan;101256.47;5013417;28;20037;-81
2022/04/15 00:24:49;;;;;;;15.70;10.70;;;;;;;8.74;nan;101250.34;4987814;28;20047;-81
2022/04/15 00:27:17;;;;;;;15.10;10.82;;;;;;;8.62;nan;101252.13;4995833;28;20049;-79
2022/04/15 00:29:44;;;;;;;14.13;9.55;;;;;;;8.50;nan;101258.31;5013395;28;20033;-82
2022/04/15 00:32:11;;;;;;;13.90;9.95;;;;;;;8.48;nan;101252.16;5016252;28;20041;-80
2022/04/15 00:34:38;;;;;;;14.68;10.13;;;;;;;8.52;nan;101253.91;5028749;28;20512;-80
2022/04/15 00:37:05;;;;;;;17.38;11.07;;;;;;;8.67;nan;101261.78;5011098;28;20493;-80
2022/04/15 00:39:32;;;;;;;14.85;9.52;;;;;;;8.57;nan;101261.78;5013180;28;20406;-80
2022/04/15 00:41:59;;;;;;;13.00;9.25;;;;;;;8.69;nan;101259.13;5032261;28;20037;-79
2022/04/15 00:44:26;;;;;;;12.13;8.90;;;;;;;8.60;nan;101259.16;5026474;28;20404;-81
2022/04/15 00:46:53;;;;;;;11.65;8.88;;;;;;;8.69;nan;101259.13;5016787;28;20052;-80
2022/04/15 00:49:20;;;;;;;12.43;8.77;;;;;;;8.60;nan;101262.66;5014307;28;20029;-80
2022/04/15 00:51:49;;;;;;;12.05;8.48;;;;;;;8.65;nan;101252.97;4990114;28;20056;-81
2022/04/15 00:54:18;;;;;;;11.15;8.57;;;;;;;8.63;nan;101260.00;5029240;28;20524;-79
2022/04/15 00:56:45;;;;;;;10.93;7.68;;;;;;;8.57;nan;101261.78;5030278;28;20051;-82
2022/04/15 00:59:13;;;;;;;12.10;8.32;;;;;;;8.67;nan;101261.78;5023906;28;20079;-81
2022/04/15 01:01:42;;;;;;;11.27;8.30;;;;;;;8.69;nan;101264.41;5029919;28;20041;-81
2022/04/15 01:04:10;;;;;;;13.35;8.88;;;;;;;8.72;nan;101259.09;5021363;28;20034;-80
2022/04/15 01:06:38;;;;;;;12.63;8.63;;;;;;;8.78;nan;101264.34;5027075;28;20041;-80
2022/04/15 01:09:06;;;;;;;12.07;7.75;;;;;;;8.78;nan;101272.25;5016923;28;20038;-79
2022/04/15 01:11:34;;;;;;;11.85;8.80;;;;;;;8.65;nan;101262.63;5015274;28;20409;-80
2022/04/15 01:14:02;;;;;;;13.18;8.30;;;;;;;8.65;nan;101270.53;5005454;28;20033;-80
2022/04/15 01:16:30;;;;;;;12.23;7.78;;;;;;;8.59;nan;101268.81;5027843;28;20044;-81
2022/04/15 01:18:57;;;;;;;12.55;8.65;;;;;;;8.64;nan;101267.03;5028383;28;20056;-83
2022/04/15 01:21:25;;;;;;;11.98;6.90;;;;;;;8.64;nan;101269.66;5022662;28;20040;-81
2022/04/15 01:23:54;;;;;;;10.20;7.97;;;;;;;8.61;nan;101268.81;5019642;28;20512;-79
2022/04/15 01:26:21;;;;;;;11.05;8.02;;;;;;;8.58;nan;101267.06;5027649;28;20041;-79
2022/04/15 01:28:47;;;;;;;11.07;7.63;;;;;;;8.60;nan;101267.06;5029699;28;20039;-79
2022/04/15 01:31:14;;;;;;;12.10;7.72;;;;;;;8.57;nan;101267.91;5027586;28;20034;-79
2022/04/15 01:33:41;;;;;;;9.63;6.75;;;;;;;8.57;nan;101267.03;5028717;28;20052;-81
2022/04/15 01:36:10;;;;;;;9.45;6.55;;;;;;;8.57;nan;101273.19;5032067;28;20117;-81
2022/04/15 01:38:37;;;;;;;9.73;6.53;;;;;;;8.50;nan;101266.22;5015834;28;20041;-81
2022/04/15 01:41:04;;;;;;;13.50;7.70;;;;;;;8.53;nan;101274.09;5029739;28;20490;-80
2022/04/15 01:43:31;;;;;;;11.43;6.55;;;;;;;8.52;nan;101274.97;5018197;28;20049;-81
2022/04/15 01:45:58;;;;;;;10.27;6.57;;;;;;;8.58;nan;101263.56;5030881;28;20461;-81
2022/04/15 01:48:25;;;;;;;9.85;6.90;;;;;;;8.56;nan;101260.03;5020892;28;20476;-81
2022/04/15 01:50:52;;;;;;;10.15;6.93;;;;;;;8.58;nan;101266.19;5015760;28;20576;-81
2022/04/15 01:53:22;;;;;;;11.30;6.75;;;;;;;8.55;nan;101261.78;5028300;28;20029;-80
2022/04/15 01:55:49;;;;;;;9.43;6.55;;;;;;;8.52;nan;101256.53;5046061;28;20056;-81
2022/04/15 01:58:17;;;;;;;11.60;7.25;;;;;;;8.52;nan;101268.84;5028358;28;21309;-81
2022/04/15 02:00:44;;;;;;;8.48;6.38;;;;;;;8.54;nan;101270.56;5015367;28;20565;-80
2022/04/15 02:03:11;;;;;;;11.15;7.03;;;;;;;8.61;nan;101269.69;5025281;28;20043;-80
2022/04/15 02:05:41;;;;;;;11.13;6.90;;;;;;;8.62;nan;101268.78;5028388;28;20813;-79
2022/04/15 02:08:08;;;;;;;12.68;7.10;;;;;;;8.58;nan;101267.06;5012999;28;20037;-81
2022/04/15 02:10:35;;;;;;;9.20;6.05;;;;;;;8.60;nan;101274.97;5015128;28;20509;-81
2022/04/15 02:13:02;;;;;;;11.85;6.85;;;;;;;8.59;nan;101262.69;5029147;28;20047;-80
2022/04/15 02:15:29;;;;;;;12.07;7.03;;;;;;;8.56;nan;101274.06;5012751;28;20040;-80
2022/04/15 02:17:57;;;;;;;9.80;5.70;;;;;;;8.56;nan;101278.47;5031300;28;20043;-81
2022/04/15 02:20:24;;;;;;;8.98;6.30;;;;;;;8.57;nan;101280.22;5031375;28;20122;-79
2022/04/15 02:22:54;;;;;;;10.98;6.70;;;;;;;8.56;nan;101281.97;5031664;28;20037;-81
2022/04/15 02:25:21;;;;;;;9.98;6.47;;;;;;;8.55;nan;101285.50;5014117;28;20041;-82
2022/04/15 02:27:48;;;;;;;9.55;6.47;;;;;;;8.53;nan;101284.63;5012185;28;20040;-80
2022/04/15 02:30:15;;;;;;;10.02;7.05;;;;;;;8.56;nan;101283.72;5007127;28;20266;-80
2022/04/15 02:32:42;;;;;;;14.85;6.68;;;;;;;8.50;nan;101283.78;5029010;28;20037;-81
2022/04/15 02:35:09;;;;;;;9.35;6.43;;;;;;;8.52;nan;101282.88;5009485;28;20075;-80
2022/04/15 02:37:36;;;;;;;11.55;7.05;;;;;;;8.50;nan;101289.91;5015698;28;20071;-80
2022/04/15 02:40:04;;;;;;;9.93;6.70;;;;;;;8.56;nan;101283.72;5011384;28;20045;-79
2022/04/15 02:42:31;;;;;;;12.52;6.90;;;;;;;8.54;nan;101291.63;5041125;28;20067;-78
2022/04/15 02:45:02;;;;;;;11.50;7.53;;;;;;;8.48;nan;101281.13;5031620;28;20036;-78
2022/04/15 02:47:29;;;;;;;8.98;6.85;;;;;;;8.48;nan;101291.63;5024013;28;20205;-79
2022/04/15 02:49:56;;;;;;;9.63;7.40;;;;;;;8.39;nan;101291.66;5032425;28;20504;-78
2022/04/15 02:52:23;;;;;;;11.23;7.72;;;;;;;8.43;nan;101291.66;5015690;28;20044;-79
2022/04/15 02:54:50;;;;;;;9.20;6.60;;;;;;;8.43;nan;101294.31;5043592;28;20033;-79
2022/04/15 02:57:17;;;;;;;10.63;7.43;;;;;;;8.56;nan;101296.91;5006375;28;20559;-78
2022/04/15 02:59:44;;;;;;;12.00;8.05;;;;;;;8.55;nan;101288.13;5030130;28;20428;-79
2022/04/15 03:02:11;;;;;;;11.20;7.80;;;;;;;8.51;nan;101296.06;5032220;28;20033;-79
2022/04/15 03:04:38;;;;;;;10.20;7.28;;;;;;;8.43;nan;101298.69;5031909;28;20041;-78
2022/04/15 03:07:05;;;;;;;15.60;7.90;;;;;;;8.36;nan;101303.09;5040178;28;20060;-78
2022/04/15 03:09:32;;;;;;;11.18;7.57;;;;;;;8.31;nan;101298.66;4996909;28;20516;-78
2022/04/15 03:11:59;;;;;;;12.00;8.10;;;;;;;8.36;nan;101303.09;5027600;28;20039;-78
2022/04/15 03:14:26;;;;;;;15.30;9.27;;;;;;;8.24;nan;101304.81;5008978;28;20040;-81
2022/04/15 03:16:53;;;;;;;10.93;7.75;;;;;;;8.29;nan;101303.06;5021544;28;20036;-80
2022/04/15 03:19:20;;;;;;;13.60;8.93;;;;;;;8.27;nan;101302.19;5012068;28;20052;-77
2022/04/15 03:21:47;;;;;;;13.32;8.98;;;;;;;8.22;nan;101307.44;5022948;28;20037;-78
2022/04/15 03:24:14;;;;;;;13.40;9.38;;;;;;;8.22;nan;101301.31;5024709;28;20041;-80
2022/04/15 03:26:41;;;;;;;18.63;9.87;;;;;;;8.24;nan;101303.06;5031626;28;20040;-78
2022/04/15 03:29:08;;;;;;;14.43;9.80;;;;;;;8.12;nan;101301.31;5038814;28;20510;-78
2022/04/15 03:31:34;;;;;;;14.30;9.00;;;;;;;8.10;nan;101308.34;5033431;28;20053;-79
2022/04/15 03:34:01;;;;;;;15.32;9.48;;;;;;;8.06;nan;101308.31;5027209;28;20143;-78
2022/04/15 03:36:28;;;;;;;13.27;9.17;;;;;;;8.08;nan;101303.97;5020264;28;20120;-78
2022/04/15 03:38:55;;;;;;;14.73;9.52;;;;;;;8.03;nan;101316.22;5032656;28;20093;-79
2022/04/15 03:41:22;;;;;;;15.13;10.02;;;;;;;8.07;nan;101312.69;5027985;28;20077;-79
2022/04/15 03:43:50;;;;;;;13.57;9.30;;;;;;;8.05;nan;101315.34;5053403;28;20119;-79
2022/04/15 03:46:17;;;;;;;12.83;9.50;;;;;;;8.04;nan;101310.94;5029720;28;20112;-78
2022/04/15 03:48:45;;;;;;;13.80;9.67;;;;;;;8.03;nan;101313.59;5031828;28;20092;-78
2022/04/15 03:51:12;;;;;;;18.27;10.43;;;;;;;8.04;nan;101310.06;5037316;28;20179;-78
2022/04/15 03:53:39;;;;;;;20.87;11.03;;;;;;;7.88;nan;101311.81;5029605;28;20113;-79
2022/04/15 03:56:07;;;;;;;12.97;9.00;;;;;;;7.95;nan;101326.75;5032499;28;20118;-78
2022/04/15 03:58:37;;;;;;;12.93;9.48;;;;;;;8.00;nan;101321.50;5032248;28;20135;-77
2022/04/15 04:01:04;;;;;;;14.02;9.52;;;;;;;7.92;nan;101323.25;5043908;28;20131;-78
2022/04/15 04:03:31;;;;;;;20.98;10.30;;;;;;;7.92;nan;101325.88;5036105;28;20565;-78
2022/04/15 04:05:58;;;;;;;12.77;9.27;;;;;;;7.84;nan;101317.97;5021974;28;20144;-78
2022/04/15 04:08:24;;;;;;;15.17;9.33;;;;;;;7.89;nan;101321.47;5012225;28;20128;-79
2022/04/15 04:10:51;;;;;;;14.07;8.97;;;;;;;7.82;nan;101331.13;5013757;28;20093;-78
2022/04/15 04:13:18;;;;;;;14.20;9.33;;;;;;;7.84;nan;101337.25;5020269;28;20104;-79
2022/04/15 04:15:45;;;;;;;15.73;8.85;;;;;;;7.82;nan;101335.50;5021675;28;20120;-79
2022/04/15 04:18:14;;;;;;;12.50;8.60;;;;;;;7.84;nan;101336.38;5015723;28;20101;-78
2022/04/15 04:20:41;;;;;;;12.93;8.70;;;;;;;7.85;nan;101333.75;5020293;28;20101;-78
2022/04/15 04:23:08;;;;;;;13.03;8.57;;;;;;;7.94;nan;101332.00;5029733;28;20108;-79
2022/04/15 04:25:35;;;;;;;14.63;8.90;;;;;;;7.92;nan;101333.75;5020735;28;20133;-79
2022/04/15 04:28:02;;;;;;;13.17;8.87;;;;;;;7.83;nan;101343.41;5031077;28;20128;-79
2022/04/15 04:30:29;;;;;;;13.27;8.63;;;;;;;7.80;nan;101345.13;5021273;28;20097;-78
2022/04/15 04:32:59;;;;;;;12.53;8.67;;;;;;;7.78;nan;101336.38;5031945;28;20112;-79
2022/04/15 04:35:27;;;;;;;11.33;7.33;;;;;;;7.79;nan;101335.47;5028555;28;20112;-78
2022/04/15 04:37:54;;;;;;;12.47;9.27;;;;;;;7.78;nan;101345.13;5003995;28;20133;-78
2022/04/15 04:40:21;;;;;;;12.67;8.60;;;;;;;7.80;nan;101338.13;5032850;28;20093;-79
2022/04/15 04:42:50;;;;;;;14.67;8.87;;;;;;;7.85;nan;101346.91;5035822;28;20101;-79
2022/04/15 04:45:18;;;;;;;11.43;8.27;;;;;;;7.83;nan;101350.41;5021136;28;20144;-79
2022/04/15 04:47:46;;;;;;;12.17;8.50;;;;;;;7.86;nan;101347.78;5050569;28;20128;-79
2022/04/15 04:50:13;;;;;;;12.15;8.18;;;;;;;7.88;nan;101351.28;5046167;28;20116;-79
2022/04/15 04:52:40;;;;;;;13.80;8.60;;;;;;;7.88;nan;101357.41;5039346;28;20108;-79
2022/04/15 04:55:07;;;;;;;13.75;8.43;;;;;;;7.92;nan;101357.44;5035223;28;20125;-79
2022/04/15 04:57:34;;;;;;;12.30;8.10;;;;;;;8.00;nan;101358.34;5009741;28;20096;-79
2022/04/15 05:00:02;;;;;;;21.58;8.90;;;;;;;7.95;nan;101358.31;5019610;28;20463;-80
2022/04/15 05:02:29;;;;;;;11.43;8.20;;;;;;;7.98;nan;101362.69;5057204;28;20158;-79
2022/04/15 05:04:56;;;;;;;13.27;8.53;;;;;;;7.93;nan;101367.97;5019314;28;20136;-80
2022/04/15 05:07:26;;;;;;;15.65;9.57;;;;;;;7.96;nan;101362.69;5033762;28;20036;-80
2022/04/15 05:09:53;;;;;;;14.57;9.63;;;;;;;7.95;nan;101374.09;5013282;28;20402;-79
2022/04/15 05:12:20;;;;;;;14.43;8.87;;;;;;;7.95;nan;101368.84;5015154;28;20044;-79
2022/04/15 05:14:47;;;;;;;13.73;9.17;;;;;;;7.94;nan;101377.59;5014951;28;20342;-79
2022/04/15 05:17:14;;;;;;;12.07;8.40;;;;;;;7.94;nan;101372.34;5018882;28;20045;-80
2022/04/15 05:19:45;;;;;;;15.37;9.17;;;;;;;7.90;nan;101371.47;5028205;28;20516;-79
2022/04/15 05:22:12;;;;;;;14.80;9.57;;;;;;;7.96;nan;101375.84;5030526;28;20044;-79
2022/04/15 05:24:40;;;;;;;13.63;9.82;;;;;;;7.94;nan;101377.59;5006475;28;20037;-79
2022/04/15 05:27:07;;;;;;;13.50;9.47;;;;;;;7.94;nan;101380.25;5027096;28;20041;-80
2022/04/15 05:29:34;;;;;;;13.00;9.05;;;;;;;7.89;nan;101377.59;5040324;28;20045;-79
2022/04/15 05:32:03;;;;;;;13.27;9.43;;;;;;;7.93;nan;101375.84;5026201;28;20064;-79
2022/04/15 05:34:30;;;;;;;11.30;8.35;;;;;;;7.91;nan;101382.88;5030255;28;20044;-79
2022/04/15 05:36:56;;;;;;;12.33;9.27;;;;;;;7.92;nan;101379.38;5053161;28;20047;-79
2022/04/15 05:39:24;;;;;;;13.90;9.53;;;;;;;8.00;nan;101392.53;5031395;28;20395;-80
2022/04/15 05:41:51;;;;;;;11.55;8.13;;;;;;;7.94;nan;101382.00;5031046;28;20033;-80
2022/04/15 05:44:18;;;;;;;16.17;8.97;;;;;;;7.88;nan;101388.13;5030124;28;20397;-80
2022/04/15 05:46:45;;;;;;;15.35;8.82;;;;;;;7.95;nan;101389.00;5024475;28;20041;-80
2022/04/15 05:49:16;;;;;;;17.13;9.85;;;;;;;7.95;nan;101384.63;5013139;28;20501;-81
2022/04/15 05:51:45;;;;;;;14.23;9.33;;;;;;;7.91;nan;101396.03;5026424;28;20029;-81
2022/04/15 05:54:15;;;;;;;17.52;10.63;;;;;;;7.92;nan;101395.16;5031383;28;21019;-81
2022/04/15 05:56:42;;;;;;;14.47;9.40;;;;;;;7.96;nan;101396.91;4999930;28;20049;-82
2022/04/15 05:59:09;;;;;;;15.52;9.20;;;;;;;7.94;nan;101403.03;5023384;28;20438;-83
2022/04/15 06:01:36;;;;;;;13.23;9.00;;;;;;;7.93;nan;101411.81;5030268;28;20037;-81
2022/04/15 06:04:03;;;;;;;15.77;9.37;;;;;;;7.90;nan;101394.25;5013603;28;20041;-82
2022/04/15 06:06:30;;;;;;;15.20;9.57;;;;;;;8.02;nan;101398.69;5000880;28;20051;-80
2022/04/15 06:08:56;;;;;;;15.00;9.57;;;;;;;7.98;nan;101402.16;5026101;28;20041;-80
2022/04/15 06:11:25;;;;;;;15.63;9.50;;;;;;;7.77;nan;101401.25;5033924;28;20052;-82
2022/04/15 06:13:52;;;;;;;12.85;8.40;;;;;;;7.85;nan;101407.41;5017260;28;20045;-80
2022/04/15 06:16:20;;;;;;;16.83;9.77;;;;;;;7.88;nan;101410.03;5031549;28;20028;-81
2022/04/15 06:18:47;;;;;;;15.27;10.47;;;;;;;7.91;nan;101406.56;5031025;28;20043;-81
2022/04/15 06:21:34;;;;;;;14.73;9.47;;;;;;;8.03;nan;101406.56;5016512;28;20146;-80
2022/04/15 06:24:02;;;;;;;17.73;8.77;;;;;;;8.00;nan;101411.84;5016222;28;20544;-84
2022/04/15 06:26:29;;;;;;;14.35;9.43;;;;;;;7.97;nan;101408.31;5017669;28;20040;-80
2022/04/15 06:28:55;;;;;;;14.70;8.85;;;;;;;7.98;nan;101415.31;5029736;28;20429;-81
2022/04/15 06:31:22;;;;;;;16.93;9.50;;;;;;;7.95;nan;101421.47;5016291;28;20039;-80
2022/04/15 06:33:50;;;;;;;15.27;9.00;;;;;;;7.92;nan;101421.47;5015846;28;20052;-79
2022/04/15 06:36:17;;;;;;;16.80;9.90;;;;;;;7.94;nan;101424.09;5017086;28;20071;-81
2022/04/15 06:38:44;;;;;;;17.93;10.53;;;;;;;8.01;nan;101431.13;5033538;28;20047;-81
2022/04/15 06:41:11;;;;;;;13.60;9.02;;;;;;;7.96;nan;101428.47;5030915;28;20033;-80
2022/04/15 06:43:39;;;;;;;14.75;9.57;;;;;;;7.85;nan;101420.56;5006797;28;20040;-82
2022/04/15 06:46:06;;;;;;;16.95;10.10;;;;;;;7.95;nan;101425.84;5008385;28;20033;-79
2022/04/15 06:48:34;;;;;;;16.15;9.60;;;;;;;7.99;nan;101423.25;5035193;28;20045;-83
2022/04/15 06:51:02;;;;;;;16.03;9.67;;;;;;;8.01;nan;101434.63;5010928;28;20037;-82
2022/04/15 06:53:32;;;;;;;13.50;8.47;;;;;;;7.98;nan;101429.34;5012040;28;20071;-81
2022/04/15 06:56:00;;;;;;;15.70;9.83;;;;;;;7.99;nan;101428.50;5034004;28;20037;-80
2022/04/15 06:58:27;;;;;;;16.53;9.27;;;;;;;8.11;nan;101430.28;5013178;28;20053;-83
2022/04/15 07:00:54;;;;;;;13.77;8.93;;;;;;;8.05;nan;101427.63;5011132;28;20496;-81
2022/04/15 07:03:21;;;;;;;16.43;9.97;;;;;;;8.03;nan;101430.25;5012649;28;20041;-82
2022/04/15 07:05:48;;;;;;;15.43;9.35;;;;;;;8.09;nan;101438.16;5031982;28;20045;-81
2022/04/15 07:08:15;;;;;;;15.32;9.38;;;;;;;8.10;nan;101432.03;5026156;28;20044;-82
2022/04/15 07:10:42;;;;;;;15.90;10.10;;;;;;;8.08;nan;101438.16;5013499;28;20059;-80
2022/04/15 07:13:10;;;;;;;16.97;9.37;;;;;;;8.14;nan;101444.31;5012940;28;20041;-83
2022/04/15 07:15:37;;;;;;;16.65;9.32;;;;;;;8.17;nan;101440.81;5013644;28;20044;-83
2022/04/15 07:18:04;;;;;;;16.33;9.50;;;;;;;8.17;nan;101443.44;4996388;28;20045;-80
2022/04/15 07:20:32;;;;;;;16.15;8.73;;;;;;;8.14;nan;101443.44;5031935;28;20047;-80
2022/04/15 07:23:01;;;;;;;14.48;9.05;;;;;;;8.12;nan;101442.56;5032742;28;20043;-79
2022/04/15 07:25:28;;;;;;;16.30;9.23;;;;;;;8.12;nan;101446.06;5011517;28;20047;-80
2022/04/15 07:27:56;;;;;;;14.02;9.57;;;;;;;8.06;nan;101448.66;5014114;28;21434;-80
2022/04/15 07:30:23;;;;;;;18.23;9.43;;;;;;;8.18;nan;101450.47;5025911;28;20049;-83
2022/04/15 07:32:52;;;;;;;13.85;8.43;;;;;;;8.15;nan;101440.78;5030303;28;20044;-80
2022/04/15 07:35:19;;;;;;;15.38;9.07;;;;;;;8.16;nan;101458.38;5011741;28;20405;-80
2022/04/15 07:37:46;;;;;;;12.55;8.10;;;;;;;8.18;nan;101448.72;5047395;28;20045;-82
2022/04/15 07:40:13;;;;;;;13.05;8.52;;;;;;;8.22;nan;101449.59;5081023;22;20771;-80
2022/04/15 07:42:40;;;;;;;12.70;8.00;;;;;;;8.23;nan;101458.34;5027526;28;20842;-79
2022/04/15 07:45:08;;;;;;;13.82;8.68;;;;;;;8.33;nan;101453.13;5023220;28;20041;-78
2022/04/15 07:47:35;;;;;;;11.82;7.88;;;;;;;8.19;nan;101450.47;5021709;28;20041;-78
2022/04/15 07:50:22;;;;;;;12.40;7.50;;;;;;;8.26;nan;101463.66;5012472;28;20033;-79
2022/04/15 07:52:57;;;;;;;13.53;7.50;;;;;;;8.23;nan;101453.97;5038209;28;20032;-78
2022/04/15 07:55:25;;;;;;;11.20;7.57;;;;;;;8.25;nan;101461.91;5019057;28;20034;-78
2022/04/15 07:57:53;;;;;;;12.93;7.63;;;;;;;8.29;nan;101468.91;5022445;28;20037;-77
2022/04/15 08:00:20;;;;;;;11.02;7.20;;;;;;;8.19;nan;101463.63;5035359;28;20050;-80
2022/04/15 08:02:47;;;;;;;10.80;7.00;;;;;;;8.21;nan;101471.53;5026416;28;20045;-79
2022/04/15 08:05:16;;;;;;;11.32;6.80;;;;;;;8.30;nan;101468.91;5017287;28;20056;-80
2022/04/15 08:07:44;;;;;;;10.48;7.07;;;;;;;8.32;nan;101464.50;5007978;28;20060;-79
2022/04/15 08:10:10;;;;;;;9.02;6.28;;;;;;;8.38;nan;101467.19;5039441;28;20037;-80
2022/04/15 08:12:38;;;;;;;12.15;6.78;;;;;;;8.41;nan;101475.13;5027762;28;20075;-81
2022/04/15 08:15:05;;;;;;;11.35;6.78;;;;;;;8.40;nan;101464.56;5031163;28;20038;-79
2022/04/15 08:17:32;;;;;;;9.38;6.70;;;;;;;8.53;nan;101479.50;5027365;28;20060;-81
2022/04/15 08:19:59;;;;;;;12.43;6.30;;;;;;;8.51;nan;101475.13;5009610;28;20047;-80
2022/04/15 08:22:26;;;;;;;9.80;6.28;;;;;;;8.42;nan;101476.00;5020900;28;20032;-79
2022/04/15 08:24:54;;;;;;;8.85;5.90;;;;;;;8.34;nan;101477.69;4997107;28;20068;-81
2022/04/15 08:27:22;;;;;;;10.32;6.28;;;;;;;8.47;nan;101479.50;5025917;28;20030;-79
2022/04/15 08:29:51;;;;;;;9.57;5.85;;;;;;;8.51;nan;101478.63;5026344;28;20045;-80
2022/04/15 08:32:20;;;;;;;8.75;6.05;;;;;;;8.48;nan;101488.28;5016413;28;20470;-81
2022/04/15 08:34:47;;;;;;;8.43;5.57;;;;;;;8.57;nan;101496.19;4996594;28;20491;-80
2022/04/15 08:37:14;;;;;;;9.45;6.15;;;;;;;8.54;nan;101490.91;5035478;28;20524;-79
2022/04/15 08:39:41;;;;;;;9.45;5.82;;;;;;;8.51;nan;101497.06;5027963;28;20413;-78
2022/04/15 08:42:08;;;;;;;11.35;7.13;;;;;;;8.49;nan;101504.06;5028288;28;20397;-78
2022/04/15 08:44:36;;;;;;;8.05;5.28;;;;;;;8.46;nan;101502.31;5011148;28;20048;-78
2022/04/15 08:47:03;;;;;;;8.32;5.18;;;;;;;8.45;nan;101507.59;5028322;28;20401;-79
2022/04/15 08:49:31;;;;;;;7.53;4.70;;;;;;;8.29;nan;101506.63;5015204;28;20714;-79
2022/04/15 08:51:58;;;;;;;7.97;4.40;;;;;;;8.36;nan;101502.31;5018827;28;20042;-78
2022/04/15 08:54:25;;;;;;;9.27;4.82;;;;;;;8.45;nan;101510.22;5034340;28;20051;-78
2022/04/15 08:56:52;;;;;;;7.07;4.25;;;;;;;8.54;nan;101518.13;5026796;28;20047;-77
2022/04/15 08:59:19;;;;;;;6.65;4.50;;;;;;;8.48;nan;101506.72;5022682;28;20705;-78
2022/04/15 09:01:46;;;;;;;5.72;3.63;;;;;;;8.66;nan;101518.16;5025825;28;20041;-77
2022/04/15 09:04:14;;;;;;;4.63;3.17;;;;;;;8.65;nan;101520.78;5026789;28;20044;-77
2022/04/15 09:06:44;;;;;;;4.03;2.72;;;;;;;8.54;nan;101517.25;5010082;28;20030;-78
2022/04/15 09:09:12;;;;;;;4.10;2.10;;;;;;;8.60;nan;101526.06;5026194;28;20072;-79
2022/04/15 09:11:41;;;;;;;7.15;6.45;;;;;;;8.76;nan;101533.97;5023416;28;20041;-79
2022/04/15 09:14:12;;;;;;;4.28;2.85;;;;;;;8.68;nan;101532.22;5039102;28;20380;-77
2022/04/15 09:16:45;;;;;;;3.40;2.63;;;;;;;8.57;nan;101527.78;5035417;28;20124;-78
2022/04/15 09:19:13;;;;;;;6.82;4.00;;;;;;;8.74;nan;101537.50;4991264;28;20056;-79
2022/04/15 09:21:48;;;;;;;2.63;1.90;;;;;;;8.77;nan;101539.25;5039999;28;20041;-80
2022/04/15 09:24:17;;;;;;;4.78;4.28;;;;;;;8.84;nan;101543.66;5027589;28;20033;-78
2022/04/15 09:26:48;;;;;;;3.25;2.15;;;;;;;8.68;nan;101541.88;5008052;28;20132;-77
2022/04/15 09:29:15;;;;;;;2.10;1.90;;;;;;;8.81;nan;101538.34;5004458;28;20052;-77
2022/04/15 09:31:44;;;;;;;2.58;2.08;;;;;;;8.89;nan;101555.06;5022969;28;20417;-78
2022/04/15 09:34:11;;;;;;;2.20;1.70;;;;;;;8.95;nan;101551.56;5009092;28;20043;-78
2022/04/15 09:36:39;;;;;;;3.28;1.92;;;;;;;8.94;nan;101560.34;5023525;28;20037;-78
2022/04/15 09:39:16;;;;;;;2.13;1.50;;;;;;;8.81;nan;101559.44;5026554;28;20033;-77
2022/04/15 09:41:51;;;;;;;2.38;1.75;;;;;;;9.10;nan;101556.84;5026191;28;20044;-78
2022/04/15 09:44:20;;;;;;;2.20;1.35;;;;;;;8.79;nan;101555.06;5029368;28;20044;-78
2022/04/15 09:46:51;;;;;;;2.55;1.90;;;;;;;8.89;nan;101564.72;5032612;28;20097;-78
2022/04/15 09:49:18;;;;;;;1.73;1.50;;;;;;;8.92;nan;101562.97;5039354;28;20139;-78
2022/04/15 09:51:47;;;;;;;2.88;2.20;;;;;;;8.91;nan;101566.50;5050866;28;20486;-78
2022/04/15 09:54:24;;;;;;;2.17;1.88;;;;;;;8.90;nan;101569.97;5020323;28;20097;-79
2022/04/15 09:56:52;;;;;;;1.45;1.10;;;;;;;8.89;nan;101564.72;5022180;28;20132;-78
2022/04/15 09:59:21;;;;;;;1.25;1.15;;;;;;;8.82;nan;101570.84;5028534;28;20043;-78
2022/04/15 10:01:53;;;;;;;2.03;1.23;;;;;;;8.74;nan;101565.56;5035551;28;20063;-78
2022/04/15 10:04:22;;;;;;;1.73;1.50;;;;;;;8.77;nan;101576.13;5021536;28;20039;-78
2022/04/15 10:06:50;;;;;;;1.40;1.15;;;;;;;8.63;nan;101584.00;5024821;28;20060;-79
2022/04/15 10:09:17;;;;;;;1.55;1.08;;;;;;;8.68;nan;101584.91;5024202;28;20705;-78
2022/04/15 10:11:45;;;;;;;1.75;1.23;;;;;;;8.63;nan;101591.03;5022244;28;20037;-78
2022/04/15 10:14:15;;;;;;;2.72;2.28;;;;;;;8.66;nan;101586.66;4996059;28;20514;-78
2022/04/15 10:16:42;;;;;;;2.67;2.28;;;;;;;8.78;nan;101579.66;5001068;28;20038;-78
2022/04/15 10:19:11;;;;;;;2.70;2.00;;;;;;;8.84;nan;101584.94;5032523;28;20041;-77
2022/04/15 10:21:43;;;;;;;1.80;1.40;;;;;;;8.93;nan;101591.09;5020101;28;20044;-78
2022/04/15 10:24:11;;;;;;;2.75;2.30;;;;;;;8.88;nan;101584.03;5036792;28;20042;-78
2022/04/15 10:26:41;;;;;;;3.13;2.40;;;;;;;8.81;nan;101593.69;5046960;28;20071;-78
2022/04/15 10:29:09;;;;;;;1.75;1.55;;;;;;;8.64;nan;101600.69;5031822;28;20034;-78
2022/04/15 10:31:39;;;;;;;2.85;2.00;;;;;;;8.82;nan;101584.03;5027951;28;20042;-78
2022/04/15 10:34:13;;;;;;;2.47;1.67;;;;;;;8.88;nan;101598.09;5025916;28;20430;-78
2022/04/15 10:36:48;;;;;;;3.70;2.40;;;;;;;8.89;nan;101596.34;4998050;28;20046;-78
2022/04/15 10:39:18;;;;;;;3.10;2.17;;;;;;;8.85;nan;101598.09;5022820;28;20411;-78
2022/04/15 10:41:45;;;;;;;3.67;2.30;;;;;;;8.91;nan;101592.84;5027651;28;20804;-78
2022/04/15 10:44:30;;;;;;;3.30;2.35;;;;;;;8.67;nan;101603.34;5032509;28;20046;-78
2022/04/15 10:47:24;;;;;;;3.53;2.38;;;;;;;8.74;nan;101605.09;5029110;28;20047;-78
2022/04/15 10:50:04;;;;;;;3.97;2.42;;;;;;;8.77;nan;101607.75;5027992;28;20421;-79
2022/04/15 10:52:34;;;;;;;3.55;2.55;;;;;;;8.90;nan;101603.38;5028731;28;20121;-78
2022/04/15 10:55:06;;;;;;;3.80;2.72;;;;;;;8.74;nan;101613.00;5011645;28;20041;-78
2022/04/15 10:57:40;;;;;;;4.68;3.10;;;;;;;8.83;nan;101612.13;5048973;28;20132;-78
2022/04/15 11:03:04;;;;;;;3.72;2.80;;;;;;;9.30;nan;101618.34;5027044;28;20041;-79
2022/04/15 11:05:41;;;;;;;4.78;3.40;;;;;;;9.65;nan;101608.63;5016277;28;20045;-78
2022/04/15 11:08:13;;;;;;;4.25;2.85;;;;;;;9.84;nan;101610.38;5029289;28;20118;-78
2022/04/15 11:10:44;;;;;;;3.75;3.13;;;;;;;9.79;nan;101617.41;5033293;28;20052;-78
2022/04/15 11:13:40;;;;;;;3.95;3.10;;;;;;;9.87;nan;101613.00;5015422;28;20034;-79
2022/04/15 11:16:10;;;;;;;3.95;2.88;;;;;;;9.87;nan;101615.66;5014157;28;20467;-78
2022/04/15 11:18:43;;;;;;;5.35;3.30;;;;;;;9.78;nan;101621.81;5021434;28;20128;-79
2022/04/15 11:21:22;;;;;;;4.25;3.00;;;;;;;9.77;nan;101624.47;5035107;28;20041;-78
2022/04/15 11:23:55;;;;;;;4.80;3.20;;;;;;;9.60;nan;101627.13;5032003;28;20504;-78
2022/04/15 11:26:24;;;;;;;5.25;3.58;;;;;;;9.34;nan;101618.34;5034874;28;20112;-79
2022/04/15 11:28:54;;;;;;;4.10;3.10;;;;;;;9.39;nan;101630.66;5038512;28;20065;-79
2022/04/15 11:31:35;;;;;;;5.25;3.60;;;;;;;9.28;nan;101635.94;5052639;28;20072;-78
2022/04/15 11:34:06;;;;;;;6.40;3.83;;;;;;;9.37;nan;101636.81;5069648;28;20057;-78
2022/04/15 11:36:41;;;;;;;5.57;3.92;;;;;;;9.22;nan;101628.00;5070398;28;20058;-78
2022/04/15 11:39:10;;;;;;;6.85;4.80;;;;;;;9.36;nan;101646.47;5036314;28;20057;-78
2022/04/15 11:41:52;;;;;;;7.07;4.43;;;;;;;9.54;nan;101643.84;5037352;28;20068;-78
2022/04/15 11:44:20;;;;;;;6.80;4.45;;;;;;;9.71;nan;101645.59;5045353;28;20057;-79
2022/04/15 11:46:52;;;;;;;6.28;4.18;;;;;;;9.70;nan;101643.81;5015807;28;20052;-78
2022/04/15 11:49:23;;;;;;;6.38;4.35;;;;;;;9.81;nan;101639.41;4995915;28;20050;-78
2022/04/15 11:51:51;;;;;;;8.35;5.05;;;;;;;9.83;nan;101653.47;5027591;28;20048;-79
2022/04/15 11:54:22;;;;;;;8.60;5.35;;;;;;;9.63;nan;101657.91;5027312;28;20049;-79